Time;durP1;ratioP1;P1;durP2;ratioP2;P2;SDS_P1;SDS_P2;PMS_P1;PMS_P2;Temp;Humidity;BMP_temperature;BMP_pressure;BME280_temperature;BME280_humidity;BME280_pressure;Samples;Min_cycle;Max_cycle;Signal;HPM_P1;HPM_P2
2023/08/29 00:01:30;;;;;;;6.80;3.28;;;;;;;;;;5087910;28;20331;-69
2023/08/29 00:03:57;;;;;;;3.60;2.78;;;;;;;;;;5088841;28;20526;-70
2023/08/29 00:06:23;;;;;;;5.07;3.42;;;;;;;;;;5092773;28;20061;-70
2023/08/29 00:08:48;;;;;;;5.68;3.10;;;;;;;;;;5088189;28;20024;-69
2023/08/29 00:11:13;;;;;;;4.70;3.30;;;;;;;;;;5086257;28;20021;-71
2023/08/29 00:13:38;;;;;;;5.40;4.53;;;;;;;;;;5072571;28;20032;-71
2023/08/29 00:16:05;;;;;;;6.80;4.07;;;;;;;;;;5077032;28;20505;-70
2023/08/29 00:18:30;;;;;;;4.95;3.38;;;;;;;;;;5092075;28;20356;-70
2023/08/29 00:20:55;;;;;;;4.78;4.20;;;;;;;;;;5069168;28;20040;-70
2023/08/29 00:23:21;;;;;;;6.43;4.10;;;;;;;;;;5072534;28;20025;-71
2023/08/29 00:25:46;;;;;;;7.53;4.55;;;;;;;;;;5072628;28;20066;-71
2023/08/29 00:28:11;;;;;;;4.78;4.07;;;;;;;;;;5076267;28;20028;-71
2023/08/29 00:30:37;;;;;;;5.20;3.97;;;;;;;;;;5072953;28;20095;-71
2023/08/29 00:33:03;;;;;;;7.15;4.93;;;;;;;;;;5071971;28;20127;-73
2023/08/29 00:35:28;;;;;;;4.95;4.38;;;;;;;;;;5089669;28;20026;-72
2023/08/29 00:37:53;;;;;;;5.65;4.80;;;;;;;;;;5081622;28;20035;-72
2023/08/29 00:40:19;;;;;;;5.68;5.03;;;;;;;;;;5080635;28;20391;-72
2023/08/29 00:42:44;;;;;;;8.48;6.20;;;;;;;;;;5087022;28;20024;-72
2023/08/29 00:45:09;;;;;;;10.37;5.10;;;;;;;;;;5092395;28;20020;-70
2023/08/29 00:47:35;;;;;;;4.75;4.35;;;;;;;;;;5075958;28;20275;-71
2023/08/29 00:50:00;;;;;;;6.38;4.60;;;;;;;;;;5072175;28;20387;-70
2023/08/29 00:52:26;;;;;;;5.47;4.13;;;;;;;;;;5074539;28;20032;-70
2023/08/29 00:54:51;;;;;;;6.18;4.57;;;;;;;;;;5082509;28;20088;-70
2023/08/29 00:57:17;;;;;;;5.03;4.05;;;;;;;;;;5087686;28;20031;-70
2023/08/29 00:59:42;;;;;;;5.72;4.40;;;;;;;;;;5082844;28;20024;-70
2023/08/29 01:02:07;;;;;;;6.15;4.43;;;;;;;;;;5072149;28;20028;-70
2023/08/29 01:04:32;;;;;;;7.72;4.47;;;;;;;;;;5080015;28;20467;-69
2023/08/29 01:06:58;;;;;;;7.23;3.90;;;;;;;;;;5092092;28;20036;-70
2023/08/29 01:09:24;;;;;;;5.45;3.95;;;;;;;;;;5087260;28;20756;-70
2023/08/29 01:11:53;;;;;;;6.05;4.60;;;;;;;;;;5081676;28;20059;-72
2023/08/29 01:14:22;;;;;;;6.00;3.80;;;;;;;;;;5085599;28;20038;-69
2023/08/29 01:16:55;;;;;;;5.45;4.45;;;;;;;;;;5081629;28;20119;-73
2023/08/29 01:19:22;;;;;;;5.57;4.88;;;;;;;;;;5073497;28;20107;-73
2023/08/29 01:22:00;;;;;;;6.28;4.90;;;;;;;;;;5079425;28;20372;-73
2023/08/29 01:24:38;;;;;;;5.68;4.93;;;;;;;;;;5076667;28;20036;-73
2023/08/29 01:27:04;;;;;;;5.85;4.70;;;;;;;;;;5090517;28;20020;-73
2023/08/29 01:29:30;;;;;;;6.68;5.57;;;;;;;;;;5088895;28;20024;-72
2023/08/29 01:31:56;;;;;;;6.40;4.63;;;;;;;;;;5090529;28;20050;-72
2023/08/29 01:34:22;;;;;;;6.40;4.20;;;;;;;;;;5090716;28;20074;-73
2023/08/29 01:36:47;;;;;;;5.78;4.13;;;;;;;;;;5091287;28;20052;-72
2023/08/29 01:39:13;;;;;;;6.85;4.28;;;;;;;;;;5090965;28;20110;-72
2023/08/29 01:41:38;;;;;;;9.05;5.40;;;;;;;;;;5073680;28;20103;-73
2023/08/29 01:44:04;;;;;;;7.47;5.03;;;;;;;;;;5071189;28;20471;-73
2023/08/29 01:46:30;;;;;;;8.27;5.60;;;;;;;;;;5071602;28;20536;-73
2023/08/29 01:48:59;;;;;;;11.55;5.97;;;;;;;;;;5071447;28;20028;-72
2023/08/29 01:51:25;;;;;;;7.30;5.95;;;;;;;;;;5071794;28;20042;-72
2023/08/29 01:53:50;;;;;;;6.70;5.38;;;;;;;;;;5088172;28;20029;-73
2023/08/29 01:56:18;;;;;;;6.40;5.43;;;;;;;;;;5086052;28;20387;-73
2023/08/29 01:58:44;;;;;;;6.30;5.32;;;;;;;;;;5084082;28;20032;-73
2023/08/29 02:01:10;;;;;;;7.30;5.18;;;;;;;;;;5079371;28;20021;-72
2023/08/29 02:03:35;;;;;;;8.60;5.47;;;;;;;;;;5084567;28;20039;-72
2023/08/29 02:06:01;;;;;;;8.07;5.13;;;;;;;;;;5079490;28;20023;-72
2023/08/29 02:08:26;;;;;;;7.93;5.55;;;;;;;;;;5084470;28;20034;-72
2023/08/29 02:10:52;;;;;;;6.38;4.75;;;;;;;;;;5082567;28;20028;-73
2023/08/29 02:13:18;;;;;;;12.60;5.63;;;;;;;;;;5088040;28;20429;-73
2023/08/29 02:15:43;;;;;;;7.45;4.68;;;;;;;;;;5084198;28;20035;-73
2023/08/29 02:18:08;;;;;;;6.63;4.53;;;;;;;;;;5080591;28;20360;-73
2023/08/29 02:20:34;;;;;;;4.80;4.22;;;;;;;;;;5072585;28;20270;-73
2023/08/29 02:23:00;;;;;;;6.70;4.80;;;;;;;;;;5091998;28;20019;-73
2023/08/29 02:25:25;;;;;;;7.22;4.80;;;;;;;;;;5091068;28;20024;-73
2023/08/29 02:27:50;;;;;;;5.93;5.32;;;;;;;;;;5092341;28;20016;-75
2023/08/29 02:30:16;;;;;;;8.75;5.93;;;;;;;;;;5090726;28;20023;-73
2023/08/29 02:32:41;;;;;;;6.60;5.32;;;;;;;;;;5092313;28;20082;-75
2023/08/29 02:35:07;;;;;;;6.88;6.18;;;;;;;;;;5087024;28;20024;-69
2023/08/29 02:37:34;;;;;;;8.07;5.13;;;;;;;;;;5083558;28;20528;-71
2023/08/29 02:40:00;;;;;;;7.60;5.85;;;;;;;;;;5089515;28;20016;-69
2023/08/29 02:42:25;;;;;;;8.93;5.95;;;;;;;;;;5091807;28;20043;-70
2023/08/29 02:44:50;;;;;;;10.02;6.50;;;;;;;;;;5089048;28;20081;-70
2023/08/29 02:47:15;;;;;;;7.53;6.67;;;;;;;;;;5091263;28;20099;-70
2023/08/29 02:49:40;;;;;;;7.13;6.43;;;;;;;;;;5088848;28;20329;-69
2023/08/29 02:52:06;;;;;;;8.37;7.20;;;;;;;;;;5091255;28;20016;-70
2023/08/29 02:54:31;;;;;;;8.73;5.90;;;;;;;;;;5088817;28;20760;-70
2023/08/29 02:56:56;;;;;;;8.17;6.27;;;;;;;;;;5091362;28;20467;-70
2023/08/29 02:59:22;;;;;;;7.43;6.00;;;;;;;;;;5088409;28;20270;-70
2023/08/29 03:01:47;;;;;;;8.27;6.05;;;;;;;;;;5091315;28;20490;-70
2023/08/29 03:04:12;;;;;;;6.20;5.43;;;;;;;;;;5088613;28;20020;-69
2023/08/29 03:06:37;;;;;;;7.10;5.43;;;;;;;;;;5091550;28;20027;-70
2023/08/29 03:09:03;;;;;;;7.72;5.63;;;;;;;;;;5087110;28;20032;-69
2023/08/29 03:11:29;;;;;;;9.50;7.40;;;;;;;;;;5079929;28;20024;-70
2023/08/29 03:13:54;;;;;;;10.98;8.25;;;;;;;;;;5093452;28;20403;-70
2023/08/29 03:16:19;;;;;;;7.90;7.10;;;;;;;;;;5093760;28;20024;-69
2023/08/29 03:18:44;;;;;;;8.43;6.40;;;;;;;;;;5092753;28;20038;-69
2023/08/29 03:21:10;;;;;;;6.40;5.40;;;;;;;;;;5093610;28;20730;-69
2023/08/29 03:23:35;;;;;;;6.75;6.05;;;;;;;;;;5074926;28;20349;-69
2023/08/29 03:26:04;;;;;;;10.43;6.47;;;;;;;;;;5093075;28;20078;-69
2023/08/29 03:28:29;;;;;;;7.03;5.20;;;;;;;;;;5092118;28;20035;-70
2023/08/29 03:30:55;;;;;;;7.35;5.93;;;;;;;;;;5090829;28;20055;-70
2023/08/29 03:33:20;;;;;;;7.40;6.43;;;;;;;;;;5090354;28;20047;-70
2023/08/29 03:35:45;;;;;;;7.70;6.37;;;;;;;;;;5091677;28;20043;-70
2023/08/29 03:38:11;;;;;;;7.72;6.80;;;;;;;;;;5089938;28;20304;-69
2023/08/29 03:40:36;;;;;;;7.55;6.70;;;;;;;;;;5091297;28;20382;-68
2023/08/29 03:43:01;;;;;;;9.07;6.23;;;;;;;;;;5080972;28;20020;-69
2023/08/29 03:45:27;;;;;;;7.33;5.83;;;;;;;;;;5074770;28;20278;-70
2023/08/29 03:47:52;;;;;;;7.93;7.13;;;;;;;;;;5075129;28;20278;-70
2023/08/29 03:50:19;;;;;;;9.32;8.27;;;;;;;;;;5075128;28;20020;-69
2023/08/29 03:52:44;;;;;;;9.70;8.00;;;;;;;;;;5074791;28;20024;-69
2023/08/29 03:55:09;;;;;;;10.02;7.18;;;;;;;;;;5074612;28;20032;-69
2023/08/29 03:57:35;;;;;;;10.85;9.30;;;;;;;;;;5086022;28;20123;-69
2023/08/29 04:00:01;;;;;;;9.48;8.27;;;;;;;;;;5079222;28;20036;-69
2023/08/29 04:02:27;;;;;;;8.05;6.80;;;;;;;;;;5086220;28;20058;-70
2023/08/29 04:04:52;;;;;;;10.63;8.37;;;;;;;;;;5080768;28;20064;-72
2023/08/29 04:07:17;;;;;;;9.60;8.52;;;;;;;;;;5073418;28;20281;-70
2023/08/29 04:09:43;;;;;;;10.32;8.98;;;;;;;;;;5086921;28;20020;-70
2023/08/29 04:12:08;;;;;;;15.82;10.38;;;;;;;;;;5089964;28;20507;-71
2023/08/29 04:14:33;;;;;;;13.65;9.85;;;;;;;;;;5086391;28;20032;-71
2023/08/29 04:16:59;;;;;;;11.23;9.52;;;;;;;;;;5088722;28;20024;-71
2023/08/29 04:19:24;;;;;;;11.87;10.23;;;;;;;;;;5082426;28;20046;-68
2023/08/29 04:21:49;;;;;;;11.63;10.47;;;;;;;;;;5086994;28;20273;-69
2023/08/29 04:24:14;;;;;;;11.33;10.27;;;;;;;;;;5086382;28;20306;-69
2023/08/29 04:26:39;;;;;;;14.43;10.40;;;;;;;;;;5085888;28;20274;-69
2023/08/29 04:29:05;;;;;;;12.63;11.37;;;;;;;;;;5087171;28;20081;-69
2023/08/29 04:31:30;;;;;;;13.80;12.40;;;;;;;;;;5086579;28;20694;-69
2023/08/29 04:33:56;;;;;;;12.30;10.95;;;;;;;;;;5079779;28;20021;-69
2023/08/29 04:36:21;;;;;;;12.93;11.63;;;;;;;;;;5086205;28;20031;-68
2023/08/29 04:38:49;;;;;;;12.05;10.63;;;;;;;;;;5079103;28;20099;-69
2023/08/29 04:41:14;;;;;;;12.10;10.70;;;;;;;;;;5075130;28;20122;-70
2023/08/29 04:43:40;;;;;;;12.77;11.15;;;;;;;;;;5075118;28;20624;-70
2023/08/29 04:46:07;;;;;;;17.73;13.07;;;;;;;;;;5077129;28;20016;-70
2023/08/29 04:48:32;;;;;;;13.30;11.77;;;;;;;;;;5074333;28;20042;-70
2023/08/29 04:50:57;;;;;;;14.07;12.23;;;;;;;;;;5078115;28;20812;-70
2023/08/29 04:53:23;;;;;;;15.18;12.07;;;;;;;;;;5075483;28;20020;-70
2023/08/29 04:55:48;;;;;;;13.05;11.45;;;;;;;;;;5074971;28;20039;-70
2023/08/29 04:58:13;;;;;;;15.63;12.67;;;;;;;;;;5071568;28;20376;-70
2023/08/29 05:00:39;;;;;;;13.82;12.32;;;;;;;;;;5078410;28;20262;-71
2023/08/29 05:03:04;;;;;;;11.88;10.68;;;;;;;;;;5078663;28;20026;-71
2023/08/29 05:05:30;;;;;;;15.75;11.70;;;;;;;;;;5078739;28;20095;-70
2023/08/29 05:07:55;;;;;;;13.80;12.05;;;;;;;;;;5085216;28;20391;-70
2023/08/29 05:10:21;;;;;;;14.18;12.73;;;;;;;;;;5075355;28;20025;-71
2023/08/29 05:12:46;;;;;;;13.80;12.27;;;;;;;;;;5071462;28;20386;-71
2023/08/29 05:15:12;;;;;;;15.38;13.82;;;;;;;;;;5084258;28;20064;-71
2023/08/29 05:17:38;;;;;;;14.65;13.15;;;;;;;;;;5091273;28;20494;-71
2023/08/29 05:20:03;;;;;;;14.05;12.55;;;;;;;;;;5091283;28;20067;-72
2023/08/29 05:22:29;;;;;;;14.02;12.60;;;;;;;;;;5085709;28;20024;-70
2023/08/29 05:24:54;;;;;;;14.88;13.35;;;;;;;;;;5071563;28;20387;-71
2023/08/29 05:27:19;;;;;;;15.43;12.55;;;;;;;;;;5071613;28;20025;-70
2023/08/29 05:29:44;;;;;;;18.73;14.63;;;;;;;;;;5081362;28;20056;-70
2023/08/29 05:32:10;;;;;;;15.13;13.52;;;;;;;;;;5076060;28;20020;-70
2023/08/29 05:34:35;;;;;;;14.95;13.50;;;;;;;;;;5087093;28;20028;-70
2023/08/29 05:37:00;;;;;;;15.80;14.20;;;;;;;;;;5076629;28;20028;-70
2023/08/29 05:39:26;;;;;;;16.52;14.88;;;;;;;;;;5083286;28;20028;-70
2023/08/29 05:41:51;;;;;;;17.60;15.77;;;;;;;;;;5079514;28;20029;-70
2023/08/29 05:44:16;;;;;;;17.48;15.52;;;;;;;;;;5085049;28;20278;-71
2023/08/29 05:46:41;;;;;;;16.33;14.73;;;;;;;;;;5079701;28;20082;-71
2023/08/29 05:49:07;;;;;;;16.85;15.05;;;;;;;;;;5084506;28;20271;-71
2023/08/29 05:51:32;;;;;;;20.77;16.10;;;;;;;;;;5079532;28;20059;-71
2023/08/29 05:53:57;;;;;;;16.07;14.40;;;;;;;;;;5090403;28;20435;-71
2023/08/29 05:56:22;;;;;;;17.00;14.73;;;;;;;;;;5078454;28;20755;-71
2023/08/29 05:58:48;;;;;;;17.23;15.35;;;;;;;;;;5086671;28;20036;-71
2023/08/29 06:01:13;;;;;;;17.33;15.55;;;;;;;;;;5082542;28;20107;-71
2023/08/29 06:03:38;;;;;;;19.52;15.32;;;;;;;;;;5086619;28;20443;-71
2023/08/29 06:06:03;;;;;;;17.30;15.70;;;;;;;;;;5082738;28;20048;-71
2023/08/29 06:08:34;;;;;;;16.92;15.18;;;;;;;;;;5086933;28;20024;-70
2023/08/29 06:11:00;;;;;;;20.67;16.02;;;;;;;;;;5082142;28;20028;-71
2023/08/29 06:13:25;;;;;;;21.38;15.75;;;;;;;;;;5074587;28;20084;-71
2023/08/29 06:15:51;;;;;;;18.58;15.77;;;;;;;;;;5091832;28;20024;-70
2023/08/29 06:18:16;;;;;;;18.25;16.10;;;;;;;;;;5094368;28;20059;-71
2023/08/29 06:20:41;;;;;;;18.67;16.70;;;;;;;;;;5093926;28;20027;-71
2023/08/29 06:23:06;;;;;;;17.27;15.30;;;;;;;;;;5094344;28;20270;-71
2023/08/29 06:25:35;;;;;;;16.87;15.23;;;;;;;;;;5092869;28;20864;-71
2023/08/29 06:28:00;;;;;;;18.38;15.93;;;;;;;;;;5093841;28;20282;-71
2023/08/29 06:30:26;;;;;;;17.90;16.02;;;;;;;;;;5093330;28;20023;-71
2023/08/29 06:32:51;;;;;;;21.25;17.10;;;;;;;;;;5093779;28;20031;-71
2023/08/29 06:35:17;;;;;;;18.10;15.40;;;;;;;;;;5092064;28;20070;-71
2023/08/29 06:37:42;;;;;;;18.42;16.50;;;;;;;;;;5085408;28;20397;-71
2023/08/29 06:40:10;;;;;;;20.02;15.95;;;;;;;;;;5037395;28;20068;-71
2023/08/29 06:42:35;;;;;;;19.38;16.75;;;;;;;;;;5035985;28;20024;-71
2023/08/29 06:45:00;;;;;;;20.38;18.38;;;;;;;;;;5047736;28;20120;-71
2023/08/29 06:47:25;;;;;;;20.65;16.90;;;;;;;;;;5045585;28;20024;-71
2023/08/29 06:49:52;;;;;;;20.13;18.23;;;;;;;;;;5051593;28;20062;-71
2023/08/29 06:52:18;;;;;;;19.05;17.02;;;;;;;;;;5080592;28;20378;-70
2023/08/29 06:54:43;;;;;;;19.10;17.23;;;;;;;;;;5049238;28;20044;-72
2023/08/29 06:57:09;;;;;;;21.85;19.77;;;;;;;;;;5043126;28;20127;-71
2023/08/29 06:59:34;;;;;;;19.88;17.98;;;;;;;;;;5045241;28;20845;-70
2023/08/29 07:01:59;;;;;;;18.40;16.38;;;;;;;;;;5060737;28;20016;-70
2023/08/29 07:04:25;;;;;;;18.07;16.20;;;;;;;;;;5084829;28;20023;-70
2023/08/29 07:06:50;;;;;;;16.90;14.80;;;;;;;;;;5081962;28;20274;-70
2023/08/29 07:09:16;;;;;;;17.65;15.57;;;;;;;;;;5044155;28;20029;-71
2023/08/29 07:11:47;;;;;;;20.77;16.80;;;;;;;;;;5053098;28;20521;-71
2023/08/29 07:14:16;;;;;;;18.08;16.17;;;;;;;;;;5066775;28;20056;-72
2023/08/29 07:16:41;;;;;;;19.13;17.33;;;;;;;;;;5075106;28;20063;-70
2023/08/29 07:19:11;;;;;;;16.73;14.98;;;;;;;;;;5076514;28;20463;-71
2023/08/29 07:21:36;;;;;;;18.58;16.67;;;;;;;;;;5037272;28;20039;-71
2023/08/29 07:24:03;;;;;;;18.57;16.57;;;;;;;;;;5037763;28;20044;-71
2023/08/29 07:26:28;;;;;;;20.85;17.88;;;;;;;;;;5035635;28;20266;-71
2023/08/29 07:28:54;;;;;;;18.48;16.60;;;;;;;;;;5079881;28;20032;-71
2023/08/29 07:31:19;;;;;;;21.27;17.33;;;;;;;;;;5074576;28;20098;-70
2023/08/29 07:33:44;;;;;;;18.17;16.35;;;;;;;;;;5040204;28;20028;-70
2023/08/29 07:36:10;;;;;;;18.80;16.48;;;;;;;;;;5036585;28;20969;-70
2023/08/29 07:38:35;;;;;;;16.23;14.65;;;;;;;;;;5041504;28;20024;-70
2023/08/29 07:41:01;;;;;;;17.80;15.07;;;;;;;;;;5040084;28;20802;-69
2023/08/29 07:43:26;;;;;;;18.77;15.27;;;;;;;;;;5044707;28;20387;-70
2023/08/29 07:45:53;;;;;;;16.77;14.00;;;;;;;;;;5031554;28;20040;-69
2023/08/29 07:48:18;;;;;;;13.80;12.50;;;;;;;;;;5039829;28;20040;-71
2023/08/29 07:50:44;;;;;;;14.35;12.90;;;;;;;;;;5051361;28;20479;-70
2023/08/29 07:53:09;;;;;;;16.02;13.25;;;;;;;;;;5044323;28;20844;-71
2023/08/29 07:55:35;;;;;;;14.20;11.77;;;;;;;;;;5036174;28;20928;-70
2023/08/29 07:58:01;;;;;;;13.20;11.85;;;;;;;;;;5052509;28;20294;-71
2023/08/29 08:00:28;;;;;;;13.43;11.85;;;;;;;;;;5076682;28;20024;-70
2023/08/29 08:02:53;;;;;;;13.02;10.82;;;;;;;;;;5089823;28;20066;-70
2023/08/29 08:05:18;;;;;;;11.75;10.18;;;;;;;;;;5079528;28;20025;-70
2023/08/29 08:07:44;;;;;;;11.32;8.45;;;;;;;;;;5088162;28;20077;-71
2023/08/29 08:10:10;;;;;;;10.98;8.82;;;;;;;;;;5080472;28;20094;-69
2023/08/29 08:12:37;;;;;;;10.52;8.82;;;;;;;;;;5073335;28;20055;-70
2023/08/29 08:15:04;;;;;;;9.23;8.32;;;;;;;;;;5088333;28;20040;-70
2023/08/29 08:17:30;;;;;;;9.35;6.72;;;;;;;;;;5077716;28;20070;-70
2023/08/29 08:19:55;;;;;;;8.27;6.93;;;;;;;;;;5084434;28;20028;-71
2023/08/29 08:22:22;;;;;;;8.52;7.53;;;;;;;;;;5085555;28;20025;-71
2023/08/29 08:24:47;;;;;;;6.55;5.85;;;;;;;;;;5081938;28;20021;-71
2023/08/29 08:27:12;;;;;;;8.13;6.70;;;;;;;;;;5077799;28;20073;-71
2023/08/29 08:29:38;;;;;;;11.48;7.30;;;;;;;;;;5080359;28;20343;-71
2023/08/29 08:32:03;;;;;;;7.05;6.15;;;;;;;;;;5081264;28;20017;-71
2023/08/29 08:34:28;;;;;;;8.73;6.70;;;;;;;;;;5076007;28;20017;-71
2023/08/29 08:36:54;;;;;;;7.87;5.77;;;;;;;;;;5081993;28;20463;-72
2023/08/29 08:39:19;;;;;;;10.47;6.57;;;;;;;;;;5079256;28;20301;-71
2023/08/29 08:41:44;;;;;;;8.70;6.70;;;;;;;;;;5082180;28;20286;-72
2023/08/29 08:44:11;;;;;;;13.02;6.82;;;;;;;;;;5083410;28;20266;-72
2023/08/29 08:46:37;;;;;;;8.40;7.40;;;;;;;;;;5079892;28;20111;-72
2023/08/29 08:49:03;;;;;;;8.18;7.38;;;;;;;;;;5089662;28;20057;-71
2023/08/29 08:51:30;;;;;;;8.15;6.40;;;;;;;;;;5075951;28;20036;-71
2023/08/29 08:53:55;;;;;;;7.82;6.63;;;;;;;;;;5084000;28;20030;-71
2023/08/29 08:56:21;;;;;;;8.32;6.10;;;;;;;;;;5081043;28;20032;-71
2023/08/29 08:58:46;;;;;;;9.00;6.40;;;;;;;;;;5080595;28;20486;-72
2023/08/29 09:01:11;;;;;;;8.57;5.87;;;;;;;;;;5072407;28;20020;-72
2023/08/29 09:03:38;;;;;;;6.47;5.88;;;;;;;;;;5039568;28;20824;-71
2023/08/29 09:06:04;;;;;;;7.32;5.88;;;;;;;;;;5033690;28;20862;-73
2023/08/29 09:08:31;;;;;;;7.05;5.82;;;;;;;;;;5013929;28;20028;-72
2023/08/29 09:10:59;;;;;;;5.75;4.53;;;;;;;;;;5056809;28;20070;-72
2023/08/29 09:13:24;;;;;;;6.72;5.15;;;;;;;;;;5076430;28;20475;-72
2023/08/29 09:15:49;;;;;;;4.93;4.43;;;;;;;;;;5079593;28;20028;-72
2023/08/29 09:18:22;;;;;;;11.57;4.73;;;;;;;;;;5078618;28;20028;-71
2023/08/29 09:20:50;;;;;;;5.95;4.35;;;;;;;;;;5079459;28;20270;-71
2023/08/29 09:23:22;;;;;;;4.68;3.50;;;;;;;;;;5083093;28;20035;-71
2023/08/29 09:25:59;;;;;;;6.50;4.03;;;;;;;;;;5083609;28;20020;-72
2023/08/29 09:28:28;;;;;;;4.75;3.92;;;;;;;;;;5081537;28;20500;-72
2023/08/29 09:30:54;;;;;;;5.85;4.10;;;;;;;;;;5078956;28;20017;-72
2023/08/29 09:33:21;;;;;;;6.43;4.25;;;;;;;;;;5084897;28;20359;-72
2023/08/29 09:35:46;;;;;;;6.18;4.25;;;;;;;;;;5084390;28;20024;-71
2023/08/29 09:38:12;;;;;;;5.82;3.15;;;;;;;;;;5071259;28;20423;-71
2023/08/29 09:40:47;;;;;;;5.72;3.03;;;;;;;;;;5071727;28;20420;-71
2023/08/29 09:43:13;;;;;;;6.60;3.60;;;;;;;;;;5077944;28;20141;-72
2023/08/29 09:45:38;;;;;;;4.60;3.05;;;;;;;;;;5072285;28;20029;-72
2023/08/29 09:48:07;;;;;;;5.07;2.85;;;;;;;;;;5071550;28;20097;-72
2023/08/29 09:50:32;;;;;;;5.47;3.10;;;;;;;;;;5080922;28;20024;-72
2023/08/29 09:52:58;;;;;;;3.78;2.47;;;;;;;;;;5083367;28;20077;-73
2023/08/29 09:55:25;;;;;;;4.85;3.13;;;;;;;;;;5089923;28;20035;-72
2023/08/29 09:57:52;;;;;;;6.75;3.35;;;;;;;;;;5072166;28;20659;-72
2023/08/29 10:00:20;;;;;;;6.13;2.33;;;;;;;;;;5088842;28;20028;-72
2023/08/29 10:02:47;;;;;;;4.38;2.55;;;;;;;;;;5082205;28;20059;-71
2023/08/29 10:05:12;;;;;;;4.43;2.03;;;;;;;;;;5082680;28;20534;-72
2023/08/29 10:07:40;;;;;;;3.25;1.73;;;;;;;;;;5085843;28;20079;-72
2023/08/29 10:10:06;;;;;;;3.65;1.75;;;;;;;;;;5076767;28;20459;-72
2023/08/29 10:12:32;;;;;;;2.22;1.25;;;;;;;;;;5074560;28;20506;-72
2023/08/29 10:14:58;;;;;;;2.97;1.20;;;;;;;;;;5079541;28;20061;-72
2023/08/29 10:17:24;;;;;;;3.05;1.10;;;;;;;;;;5070694;28;20039;-72
2023/08/29 10:19:51;;;;;;;2.28;1.13;;;;;;;;;;5080029;28;20044;-71
2023/08/29 10:22:17;;;;;;;3.10;1.30;;;;;;;;;;5083922;28;20021;-72
2023/08/29 10:24:44;;;;;;;2.88;1.75;;;;;;;;;;5077417;28;20028;-72
2023/08/29 10:27:10;;;;;;;3.30;1.67;;;;;;;;;;5071028;28;20021;-72
2023/08/29 10:29:35;;;;;;;3.95;1.67;;;;;;;;;;5070630;28;20028;-72
2023/08/29 10:32:01;;;;;;;3.30;1.33;;;;;;;;;;5070459;28;20368;-72
2023/08/29 10:34:27;;;;;;;2.72;1.65;;;;;;;;;;5078573;28;20040;-71
2023/08/29 10:36:53;;;;;;;2.58;1.20;;;;;;;;;;5083560;28;20086;-72
2023/08/29 10:39:19;;;;;;;2.45;0.85;;;;;;;;;;5044241;28;20021;-71
2023/08/29 10:41:48;;;;;;;2.40;1.27;;;;;;;;;;5040316;28;20081;-72
2023/08/29 10:44:28;;;;;;;2.65;1.48;;;;;;;;;;5085592;28;20100;-72
2023/08/29 10:46:54;;;;;;;2.55;1.15;;;;;;;;;;5078456;28;20060;-71
2023/08/29 10:49:22;;;;;;;2.70;1.27;;;;;;;;;;5083104;28;20052;-71
2023/08/29 10:52:08;;;;;;;2.45;1.25;;;;;;;;;;5088586;28;20016;-72
2023/08/29 10:54:33;;;;;;;3.10;1.23;;;;;;;;;;5039063;28;20016;-72
2023/08/29 10:56:58;;;;;;;3.28;1.80;;;;;;;;;;5041371;28;20067;-73
2023/08/29 10:59:32;;;;;;;3.33;2.03;;;;;;;;;;5045761;28;20135;-73
2023/08/29 11:02:16;;;;;;;2.78;1.52;;;;;;;;;;5043921;28;20265;-72
2023/08/29 11:04:42;;;;;;;2.72;1.17;;;;;;;;;;5062742;28;20041;-72
2023/08/29 11:07:09;;;;;;;1.80;0.90;;;;;;;;;;5085310;28;20031;-72
2023/08/29 11:09:34;;;;;;;2.72;1.38;;;;;;;;;;5085487;28;20013;-72
2023/08/29 11:12:06;;;;;;;3.23;1.40;;;;;;;;;;5084199;28;20020;-72
2023/08/29 11:14:51;;;;;;;2.60;1.45;;;;;;;;;;5088652;28;20262;-72
2023/08/29 11:17:23;;;;;;;3.28;1.15;;;;;;;;;;5076443;28;20117;-72
2023/08/29 11:19:50;;;;;;;1.90;0.93;;;;;;;;;;5073385;28;20479;-72
2023/08/29 11:22:15;;;;;;;4.22;1.05;;;;;;;;;;5079166;28;20073;-72
2023/08/29 11:24:41;;;;;;;1.70;0.93;;;;;;;;;;5087874;28;20130;-72
2023/08/29 11:27:06;;;;;;;3.10;1.10;;;;;;;;;;5076954;28;20352;-72
2023/08/29 11:29:35;;;;;;;2.00;0.90;;;;;;;;;;5073396;28;20493;-71
2023/08/29 11:32:00;;;;;;;3.53;1.30;;;;;;;;;;5074718;28;20693;-72
2023/08/29 11:34:25;;;;;;;2.28;0.90;;;;;;;;;;5079652;28;20028;-72
2023/08/29 11:36:51;;;;;;;2.75;1.08;;;;;;;;;;5074991;28;20086;-72
2023/08/29 11:39:18;;;;;;;3.00;1.17;;;;;;;;;;5074277;28;20431;-72
2023/08/29 11:41:44;;;;;;;1.58;0.88;;;;;;;;;;5072448;28;20021;-72
2023/08/29 11:44:10;;;;;;;2.00;1.10;;;;;;;;;;5076797;28;20027;-72
2023/08/29 11:46:35;;;;;;;2.75;0.95;;;;;;;;;;5076651;28;20262;-72
2023/08/29 11:49:00;;;;;;;3.58;1.58;;;;;;;;;;5091338;28;20100;-72
2023/08/29 11:51:26;;;;;;;2.33;1.17;;;;;;;;;;5078883;28;20069;-72
2023/08/29 11:53:52;;;;;;;4.10;1.73;;;;;;;;;;5075728;28;20157;-71
2023/08/29 11:56:17;;;;;;;5.65;1.42;;;;;;;;;;5075865;28;20024;-71
2023/08/29 11:58:42;;;;;;;4.75;1.55;;;;;;;;;;5082127;28;20031;-71
2023/08/29 12:01:07;;;;;;;3.58;1.30;;;;;;;;;;5079086;28;20393;-72
2023/08/29 12:03:37;;;;;;;3.60;1.33;;;;;;;;;;5085851;28;20020;-72
2023/08/29 12:06:04;;;;;;;4.22;1.40;;;;;;;;;;5088074;28;20020;-72
2023/08/29 12:08:34;;;;;;;3.13;1.50;;;;;;;;;;5083932;28;20107;-72
2023/08/29 12:10:59;;;;;;;2.15;1.00;;;;;;;;;;5067844;28;20347;-73
2023/08/29 12:13:24;;;;;;;2.30;1.20;;;;;;;;;;5084230;28;20023;-72
2023/08/29 12:15:49;;;;;;;2.03;1.17;;;;;;;;;;5090142;28;20793;-72
2023/08/29 12:18:21;;;;;;;2.70;1.45;;;;;;;;;;5078495;28;20279;-72
2023/08/29 12:20:47;;;;;;;2.20;1.23;;;;;;;;;;5086832;28;20402;-72
2023/08/29 12:23:12;;;;;;;4.38;2.05;;;;;;;;;;5091620;28;20028;-71
2023/08/29 12:25:38;;;;;;;3.13;1.40;;;;;;;;;;5081101;28;20024;-72
2023/08/29 12:28:03;;;;;;;3.63;1.70;;;;;;;;;;5081603;28;21649;-72
2023/08/29 12:30:28;;;;;;;3.30;1.30;;;;;;;;;;5072497;28;20817;-72
2023/08/29 12:32:54;;;;;;;3.07;1.70;;;;;;;;;;5083247;28;20024;-71
2023/08/29 12:35:19;;;;;;;5.47;1.70;;;;;;;;;;5083201;28;20422;-71
2023/08/29 12:37:44;;;;;;;4.28;1.60;;;;;;;;;;5087324;28;20028;-72
2023/08/29 12:40:12;;;;;;;3.20;1.58;;;;;;;;;;5087316;28;20047;-72
2023/08/29 12:42:37;;;;;;;2.50;1.23;;;;;;;;;;5077286;28;20024;-72
2023/08/29 12:45:03;;;;;;;6.95;1.60;;;;;;;;;;5085495;28;20451;-72
2023/08/29 12:47:29;;;;;;;2.35;1.13;;;;;;;;;;5091247;28;20035;-72
2023/08/29 12:49:54;;;;;;;5.03;1.42;;;;;;;;;;5071242;28;20023;-71
2023/08/29 12:52:19;;;;;;;2.20;1.00;;;;;;;;;;5079899;28;20028;-72
2023/08/29 12:54:45;;;;;;;2.60;1.30;;;;;;;;;;5078590;28;20745;-72
2023/08/29 12:57:10;;;;;;;2.20;1.00;;;;;;;;;;5088650;28;20030;-72
2023/08/29 12:59:35;;;;;;;3.08;1.33;;;;;;;;;;5067343;28;20027;-72
2023/08/29 13:02:02;;;;;;;3.00;1.00;;;;;;;;;;5088889;28;20023;-71
2023/08/29 13:04:27;;;;;;;2.20;1.00;;;;;;;;;;5088339;28;20349;-72
2023/08/29 13:06:53;;;;;;;2.73;1.17;;;;;;;;;;5087275;28;20593;-72
2023/08/29 13:09:18;;;;;;;2.58;0.98;;;;;;;;;;5084785;28;20415;-73
2023/08/29 13:11:43;;;;;;;1.87;0.97;;;;;;;;;;5071852;28;20029;-72
2023/08/29 13:14:09;;;;;;;1.93;0.80;;;;;;;;;;5071801;28;20294;-72
2023/08/29 13:16:34;;;;;;;3.17;0.93;;;;;;;;;;5080921;28;20642;-71
2023/08/29 13:19:00;;;;;;;2.03;0.75;;;;;;;;;;5071478;28;20289;-71
2023/08/29 13:21:25;;;;;;;2.05;1.00;;;;;;;;;;5072005;28;20475;-71
2023/08/29 13:23:51;;;;;;;4.63;1.30;;;;;;;;;;5072146;28;20027;-72
2023/08/29 13:26:17;;;;;;;1.83;0.80;;;;;;;;;;5071610;28;20555;-71
2023/08/29 13:28:43;;;;;;;1.90;0.88;;;;;;;;;;5072381;28;20515;-71
2023/08/29 13:31:10;;;;;;;2.23;1.20;;;;;;;;;;5036141;28;20029;-72
2023/08/29 13:33:36;;;;;;;1.73;0.82;;;;;;;;;;5031111;28;20279;-72
2023/08/29 13:36:01;;;;;;;2.30;1.10;;;;;;;;;;5042069;28;20067;-72
2023/08/29 13:38:26;;;;;;;2.53;1.08;;;;;;;;;;5044684;28;20862;-71
2023/08/29 13:40:52;;;;;;;2.40;1.17;;;;;;;;;;5039456;28;20056;-72
2023/08/29 13:43:17;;;;;;;1.83;0.70;;;;;;;;;;5038821;28;20020;-71
2023/08/29 13:45:43;;;;;;;1.75;0.88;;;;;;;;;;5034277;28;20179;-72
2023/08/29 13:48:08;;;;;;;3.00;1.00;;;;;;;;;;5044181;28;20063;-72
2023/08/29 13:50:34;;;;;;;2.05;1.10;;;;;;;;;;5069648;28;20024;-72
2023/08/29 13:52:59;;;;;;;3.47;1.30;;;;;;;;;;5045997;28;20809;-72
2023/08/29 13:55:24;;;;;;;2.53;1.35;;;;;;;;;;5052330;28;20071;-72
2023/08/29 13:57:50;;;;;;;2.35;1.27;;;;;;;;;;5072644;28;20016;-71
2023/08/29 14:00:15;;;;;;;3.27;1.30;;;;;;;;;;5072251;28;20020;-71
2023/08/29 14:02:40;;;;;;;1.75;0.93;;;;;;;;;;5073393;28;20275;-72
2023/08/29 14:05:06;;;;;;;3.15;0.93;;;;;;;;;;5072412;28;20099;-73
2023/08/29 14:07:32;;;;;;;2.63;1.20;;;;;;;;;;5072159;28;20021;-72
2023/08/29 14:09:57;;;;;;;1.98;1.10;;;;;;;;;;5072210;28;20101;-72
2023/08/29 14:12:24;;;;;;;2.53;1.20;;;;;;;;;;5086717;28;20046;-71
2023/08/29 14:14:50;;;;;;;2.40;1.30;;;;;;;;;;5070927;28;20278;-71
2023/08/29 14:17:15;;;;;;;2.80;1.10;;;;;;;;;;5071309;28;20028;-71
2023/08/29 14:19:41;;;;;;;6.32;1.67;;;;;;;;;;5074217;28;20028;-71
2023/08/29 14:22:06;;;;;;;2.45;1.00;;;;;;;;;;5074557;28;20028;-72
2023/08/29 14:24:32;;;;;;;3.17;1.30;;;;;;;;;;5074679;28;20017;-71
2023/08/29 14:26:57;;;;;;;2.42;1.00;;;;;;;;;;5074806;28;20299;-72
2023/08/29 14:29:23;;;;;;;1.90;1.03;;;;;;;;;;5074317;28;20032;-71